createdAt,value
2018-11-29T00:00:24.005Z,99.90
2018-11-29T00:02:52.748Z,99.90
2018-11-29T00:05:21.424Z,99.90
2018-11-29T00:07:50.115Z,99.90
2018-11-29T00:10:18.787Z,99.90
2018-11-29T00:12:47.467Z,99.90
2018-11-29T00:15:16.335Z,99.90
2018-11-29T00:17:45.019Z,99.90
2018-11-29T00:20:14.505Z,99.90
2018-11-29T00:22:43.925Z,99.90
2018-11-29T00:25:13.405Z,99.90
2018-11-29T00:27:42.185Z,99.90
2018-11-29T00:30:13.675Z,99.90
2018-11-29T00:32:42.406Z,99.90
2018-11-29T00:35:14.686Z,99.90
2018-11-29T00:37:43.405Z,99.90
2018-11-29T00:40:13.993Z,99.90
2018-11-29T00:42:42.675Z,99.90
2018-11-29T00:45:12.390Z,99.90
2018-11-29T00:47:41.090Z,99.90
2018-11-29T00:50:10.819Z,99.90
2018-11-29T00:52:40.206Z,99.90
2018-11-29T00:55:10.026Z,99.90
2018-11-29T00:57:38.888Z,99.90
2018-11-29T01:00:13.501Z,99.90
2018-11-29T01:02:42.189Z,99.90
2018-11-29T01:05:11.009Z,99.90
2018-11-29T01:07:40.202Z,99.90
2018-11-29T01:10:11.178Z,99.90
2018-11-29T01:12:40.224Z,99.90
2018-11-29T01:15:15.068Z,99.90
2018-11-29T01:17:44.402Z,99.90
2018-11-29T01:20:14.090Z,99.90
2018-11-29T01:22:42.838Z,99.90
2018-11-29T01:25:12.359Z,99.90
2018-11-29T01:27:41.664Z,99.90
2018-11-29T01:30:14.148Z,99.90
2018-11-29T01:32:42.871Z,99.90
2018-11-29T01:35:12.418Z,99.90
2018-11-29T01:37:41.092Z,99.90
2018-11-29T01:40:19.372Z,99.90
2018-11-29T01:43:03.867Z,99.90
2018-11-29T01:45:32.549Z,99.90
2018-11-29T01:48:01.349Z,99.90
2018-11-29T01:50:30.293Z,99.90
2018-11-29T01:52:58.987Z,99.90
2018-11-29T01:55:27.678Z,99.90
2018-11-29T01:57:56.345Z,99.90
2018-11-29T02:00:25.042Z,99.90
2018-11-29T02:02:53.763Z,99.90
2018-11-29T02:05:22.466Z,99.90
2018-11-29T02:07:51.132Z,99.90
2018-11-29T02:10:26.667Z,99.90
2018-11-29T02:12:55.608Z,99.90
2018-11-29T02:15:24.378Z,99.90
2018-11-29T02:17:53.046Z,99.90
2018-11-29T02:20:21.768Z,99.90
2018-11-29T02:22:50.464Z,99.90
2018-11-29T02:25:19.156Z,99.90
2018-11-29T02:27:47.839Z,99.90
2018-11-29T02:30:19.453Z,99.90
2018-11-29T02:32:48.223Z,99.90
2018-11-29T02:35:16.936Z,99.90
2018-11-29T02:37:45.606Z,99.90
2018-11-29T02:40:15.321Z,99.90
2018-11-29T02:42:44.420Z,99.90
2018-11-29T02:45:18.149Z,99.90
2018-11-29T02:47:46.827Z,99.90
2018-11-29T02:50:15.530Z,99.90
2018-11-29T02:52:44.333Z,99.90
2018-11-29T02:55:13.177Z,99.90
2018-11-29T02:57:42.003Z,99.90
2018-11-29T03:00:14.424Z,99.90
2018-11-29T03:02:43.291Z,99.90
2018-11-29T03:05:11.997Z,99.90
2018-11-29T03:07:40.710Z,99.90
2018-11-29T03:10:11.341Z,99.90
2018-11-29T03:12:40.089Z,99.90
2018-11-29T03:15:12.004Z,99.90
2018-11-29T03:17:40.674Z,99.90
2018-11-29T03:20:10.589Z,99.90
2018-11-29T03:22:39.310Z,99.90
2018-11-29T03:25:16.145Z,99.90
2018-11-29T03:27:44.993Z,99.90
2018-11-29T03:30:14.575Z,99.90
2018-11-29T03:32:43.238Z,99.90
2018-11-29T03:35:12.749Z,99.90
2018-11-29T03:37:41.425Z,99.90
2018-11-29T03:40:12.274Z,99.90
2018-11-29T03:42:40.938Z,99.90
2018-11-29T03:45:10.865Z,99.90
2018-11-29T03:47:39.577Z,99.90
2018-11-29T03:50:09.953Z,99.90
2018-11-29T03:52:38.651Z,99.90
2018-11-29T03:55:08.273Z,99.90
2018-11-29T03:57:37.295Z,99.90
2018-11-29T04:00:09.014Z,99.90
2018-11-29T04:02:37.742Z,99.90
2018-11-29T04:05:06.487Z,99.90
2018-11-29T04:07:35.278Z,99.90
2018-11-29T04:10:03.985Z,99.90
2018-11-29T04:12:32.682Z,99.90
2018-11-29T04:15:01.349Z,99.90
2018-11-29T04:17:30.060Z,99.90
2018-11-29T04:19:58.805Z,99.90
2018-11-29T04:22:27.470Z,99.90
2018-11-29T04:24:56.149Z,99.90
2018-11-29T04:27:24.985Z,99.90
2018-11-29T04:29:53.648Z,99.90
2018-11-29T04:32:22.326Z,99.90
2018-11-29T04:34:50.998Z,99.90
2018-11-29T04:37:19.682Z,99.90
2018-11-29T04:39:48.394Z,99.90
2018-11-29T04:42:17.099Z,99.90
2018-11-29T04:44:45.751Z,99.90
2018-11-29T04:47:14.538Z,99.90
2018-11-29T04:49:43.471Z,99.90
2018-11-29T04:52:12.419Z,99.90
2018-11-29T04:54:41.092Z,99.90
2018-11-29T04:57:09.780Z,99.90
2018-11-29T04:59:38.421Z,99.90
2018-11-29T05:02:07.137Z,99.90
2018-11-29T05:04:35.813Z,99.90
2018-11-29T05:07:04.533Z,99.90
2018-11-29T05:09:33.195Z,99.90
2018-11-29T05:12:01.877Z,99.90
2018-11-29T05:14:30.825Z,99.90
2018-11-29T05:16:59.565Z,99.90
2018-11-29T05:19:28.384Z,99.90
2018-11-29T05:21:57.054Z,99.90
2018-11-29T05:24:25.705Z,99.90
2018-11-29T05:26:54.409Z,99.90
2018-11-29T05:29:23.065Z,99.90
2018-11-29T05:31:51.783Z,99.90
2018-11-29T05:34:20.522Z,99.90
2018-11-29T05:36:49.220Z,99.90
2018-11-29T05:39:17.918Z,99.90
2018-11-29T05:41:46.609Z,99.90
2018-11-29T05:44:15.276Z,99.90
2018-11-29T05:46:44.041Z,99.90
2018-11-29T05:49:13.297Z,99.90
2018-11-29T05:51:42.010Z,99.90
2018-11-29T05:54:10.805Z,99.90
2018-11-29T05:56:39.502Z,99.90
2018-11-29T05:59:08.196Z,99.90
2018-11-29T06:01:39.710Z,99.90
2018-11-29T06:04:08.440Z,99.90
2018-11-29T06:06:37.126Z,99.90
2018-11-29T06:09:08.514Z,99.90
2018-11-29T06:11:38.126Z,99.90
2018-11-29T06:14:07.754Z,99.90
2018-11-29T06:16:37.271Z,99.90
2018-11-29T06:19:07.366Z,99.90
2018-11-29T06:21:36.160Z,99.90
2018-11-29T06:24:05.173Z,99.90
2018-11-29T06:26:33.854Z,99.90
2018-11-29T06:29:02.533Z,99.90
2018-11-29T06:31:31.233Z,99.90
2018-11-29T06:33:59.909Z,99.90
2018-11-29T06:36:28.719Z,99.90
2018-11-29T06:38:57.389Z,99.90
2018-11-29T06:41:26.099Z,99.90
2018-11-29T06:43:54.763Z,99.90
2018-11-29T06:46:23.439Z,99.90
2018-11-29T06:48:52.367Z,99.90
2018-11-29T06:51:21.034Z,99.90
2018-11-29T06:53:55.113Z,99.90
2018-11-29T06:56:24.000Z,99.90
2018-11-29T06:58:52.687Z,99.90
2018-11-29T07:01:21.349Z,99.90
2018-11-29T07:03:50.040Z,99.90
2018-11-29T07:06:18.807Z,99.90
2018-11-29T07:08:47.467Z,99.90
2018-11-29T07:11:16.149Z,99.90
2018-11-29T07:13:44.847Z,99.90
2018-11-29T07:16:13.614Z,99.90
2018-11-29T07:18:42.363Z,99.90
2018-11-29T07:21:22.508Z,99.90
2018-11-29T07:23:51.199Z,99.90
2018-11-29T07:26:19.895Z,99.90
2018-11-29T07:28:48.550Z,99.90
2018-11-29T07:31:17.525Z,99.90
2018-11-29T07:33:46.191Z,99.90
2018-11-29T07:36:14.872Z,99.90
2018-11-29T07:38:43.674Z,99.90
2018-11-29T07:41:12.338Z,99.90
2018-11-29T07:43:41.016Z,99.90
2018-11-29T07:46:09.667Z,99.90
2018-11-29T07:48:38.390Z,99.90
2018-11-29T07:51:07.062Z,99.90
2018-11-29T07:53:35.777Z,99.90
2018-11-29T07:56:04.524Z,99.90
2018-11-29T07:58:33.195Z,99.90
2018-11-29T08:01:01.892Z,99.90
2018-11-29T08:03:30.656Z,99.90
2018-11-29T08:05:59.348Z,99.90
2018-11-29T08:08:28.140Z,99.90
2018-11-29T08:10:56.814Z,99.90
2018-11-29T08:13:25.638Z,99.90
2018-11-29T08:15:54.398Z,99.90
2018-11-29T08:18:23.110Z,99.90
2018-11-29T08:20:51.802Z,99.90
2018-11-29T08:23:20.479Z,99.90
2018-11-29T08:25:49.214Z,99.90
2018-11-29T08:28:17.916Z,99.90
2018-11-29T08:30:46.606Z,99.90
2018-11-29T08:33:15.272Z,99.90
2018-11-29T08:35:43.980Z,99.90
2018-11-29T08:38:12.717Z,99.90
2018-11-29T08:40:41.401Z,99.70
2018-11-29T08:43:10.074Z,99.70
2018-11-29T08:45:38.758Z,99.90
2018-11-29T08:48:07.730Z,99.90
2018-11-29T08:50:36.441Z,99.90
2018-11-29T08:53:05.671Z,99.70
2018-11-29T08:55:34.371Z,99.50
2018-11-29T08:58:03.063Z,98.30
2018-11-29T09:00:31.731Z,99.70
2018-11-29T09:03:00.423Z,99.70
2018-11-29T09:05:33.832Z,98.90
2018-11-29T09:07:57.769Z,99.60
2018-11-29T09:10:31.653Z,99.30
2018-11-29T09:12:55.317Z,97.80
2018-11-29T09:15:24.022Z,98.10
2018-11-29T09:17:52.697Z,98.50
2018-11-29T09:20:22.126Z,98.10
2018-11-29T09:22:50.802Z,97.00
2018-11-29T09:25:20.525Z,96.80
2018-11-29T09:27:49.271Z,97.20
2018-11-29T09:30:19.726Z,97.50
2018-11-29T09:32:49.324Z,96.80
2018-11-29T09:35:18.297Z,95.20
2018-11-29T09:37:47.001Z,95.20
2018-11-29T09:40:16.800Z,94.90
2018-11-29T09:42:45.739Z,95.40
2018-11-29T09:45:18.414Z,94.80
2018-11-29T09:47:48.309Z,95.90
2018-11-29T09:50:17.428Z,96.20
2018-11-29T09:52:46.092Z,95.00
2018-11-29T09:55:15.800Z,95.30
2018-11-29T09:57:44.898Z,95.90
2018-11-29T10:00:27.829Z,96.30
2018-11-29T10:03:24.842Z,95.30
2018-11-29T10:05:53.578Z,95.10
2018-11-29T10:08:26.131Z,94.70
2018-11-29T10:10:50.946Z,95.50
2018-11-29T10:13:19.596Z,95.30
2018-11-29T10:15:48.277Z,95.60
2018-11-29T10:18:16.985Z,94.90
2018-11-29T10:20:45.702Z,95.70
2018-11-29T10:23:14.499Z,94.30
2018-11-29T10:25:43.147Z,95.00
2018-11-29T10:28:14.276Z,94.30
2018-11-29T10:30:49.627Z,95.10
2018-11-29T10:33:18.291Z,94.70
2018-11-29T10:35:46.943Z,94.30
2018-11-29T10:38:15.825Z,94.50
2018-11-29T10:40:44.564Z,94.20
2018-11-29T10:43:13.261Z,95.10
2018-11-29T10:45:41.924Z,94.70
2018-11-29T10:48:13.201Z,94.10
2018-11-29T10:50:41.936Z,92.90
2018-11-29T10:53:10.651Z,93.30
2018-11-29T10:55:39.338Z,92.50
2018-11-29T10:58:08.060Z,90.50
2018-11-29T11:00:42.248Z,91.30
2018-11-29T11:03:16.361Z,90.00
2018-11-29T11:05:45.252Z,88.90
2018-11-29T11:08:14.334Z,89.60
2018-11-29T11:10:43.178Z,89.20
2018-11-29T11:13:11.890Z,90.60
2018-11-29T11:15:40.622Z,91.20
2018-11-29T11:18:10.421Z,90.80
2018-11-29T11:20:39.184Z,91.10
2018-11-29T11:23:07.948Z,91.60
2018-11-29T11:25:36.582Z,91.00
2018-11-29T11:28:06.919Z,90.50
2018-11-29T11:30:37.130Z,90.30
2018-11-29T11:33:06.502Z,91.30
2018-11-29T11:35:35.159Z,90.00
2018-11-29T11:38:03.872Z,90.00
2018-11-29T11:40:32.613Z,90.30
2018-11-29T11:43:05.049Z,90.40
2018-11-29T11:45:30.101Z,91.10
2018-11-29T11:48:03.167Z,90.00
2018-11-29T11:50:27.683Z,90.80
2018-11-29T11:52:56.458Z,89.10
2018-11-29T11:55:29.916Z,91.10
2018-11-29T11:57:53.932Z,90.70
2018-11-29T12:00:24.631Z,91.10
2018-11-29T12:03:03.603Z,90.70
2018-11-29T12:05:32.544Z,90.90
2018-11-29T12:08:01.319Z,88.50
2018-11-29T12:10:30.175Z,90.30
2018-11-29T12:12:58.865Z,90.10
2018-11-29T12:15:27.508Z,90.10
2018-11-29T12:17:56.191Z,90.50
2018-11-29T12:20:24.852Z,90.50
2018-11-29T12:22:53.598Z,90.50
2018-11-29T12:25:22.848Z,91.10
2018-11-29T12:27:52.151Z,90.90
2018-11-29T12:30:32.986Z,91.10
2018-11-29T12:33:03.931Z,90.90
2018-11-29T12:35:32.664Z,90.10
2018-11-29T12:38:01.344Z,90.50
2018-11-29T12:40:30.240Z,90.50
2018-11-29T12:42:58.930Z,90.80
2018-11-29T12:45:27.606Z,89.50
2018-11-29T12:47:56.306Z,89.70
2018-11-29T12:50:26.020Z,89.10
2018-11-29T12:52:54.699Z,87.90
2018-11-29T12:55:24.591Z,87.50
2018-11-29T13:00:22.992Z,90.20
2018-11-29T13:02:56.285Z,90.60
2018-11-29T13:03:02.505Z,89.70
2018-11-29T13:05:25.535Z,90.50
2018-11-29T13:07:54.224Z,89.90
2018-11-29T13:10:23.998Z,90.70
2018-11-29T13:12:52.966Z,88.90
2018-11-29T13:15:26.082Z,86.40
2018-11-29T13:17:55.477Z,89.40
2018-11-29T13:20:24.442Z,90.00
2018-11-29T13:22:53.141Z,87.30
2018-11-29T13:25:23.319Z,87.80
2018-11-29T13:27:52.138Z,87.10
2018-11-29T13:30:21.734Z,87.70
2018-11-29T13:32:52.399Z,86.40
2018-11-29T13:35:23.107Z,86.40
2018-11-29T13:37:54.973Z,86.30
2018-11-29T13:40:23.723Z,87.20
2018-11-29T13:42:52.483Z,86.70
2018-11-29T13:45:21.191Z,86.70
2018-11-29T13:47:49.921Z,88.10
2018-11-29T13:50:18.701Z,86.50
2018-11-29T13:52:47.468Z,87.10
2018-11-29T13:55:16.742Z,87.70
2018-11-29T13:57:46.518Z,86.30
2018-11-29T14:00:16.369Z,86.40
2018-11-29T14:02:47.108Z,87.10
2018-11-29T14:05:16.701Z,88.00
2018-11-29T14:07:45.392Z,87.80
2018-11-29T14:10:16.228Z,86.70
2018-11-29T14:12:45.597Z,87.60
2018-11-29T14:15:16.337Z,85.10
2018-11-29T14:17:45.029Z,87.60
2018-11-29T14:20:14.099Z,88.00
2018-11-29T14:22:42.838Z,87.50
2018-11-29T14:25:14.419Z,87.50
2018-11-29T14:27:45.360Z,88.30
2018-11-29T14:30:15.238Z,88.70
2018-11-29T14:32:43.897Z,89.20
2018-11-29T14:35:12.575Z,87.70
2018-11-29T14:37:41.804Z,86.80
2018-11-29T14:40:13.572Z,87.40
2018-11-29T14:42:42.309Z,89.50
2018-11-29T14:45:13.827Z,89.60
2018-11-29T14:47:42.498Z,88.40
2018-11-29T14:50:13.554Z,87.60
2018-11-29T14:52:42.250Z,89.80
2018-11-29T14:55:11.179Z,88.00
2018-11-29T14:57:39.886Z,89.60
2018-11-29T15:00:10.091Z,89.40
2018-11-29T15:02:38.802Z,90.30
2018-11-29T15:05:10.442Z,89.70
2018-11-29T15:07:39.157Z,90.50
2018-11-29T15:10:09.058Z,89.90
2018-11-29T15:12:37.922Z,90.40
2018-11-29T15:15:09.909Z,90.70
2018-11-29T15:17:39.293Z,91.30
2018-11-29T15:20:12.534Z,90.70
2018-11-29T15:22:41.252Z,91.00
2018-11-29T15:25:09.994Z,91.10
2018-11-29T15:27:38.666Z,91.00
2018-11-29T15:30:13.426Z,91.30
2018-11-29T15:32:42.187Z,91.30
2018-11-29T15:35:10.891Z,90.60
2018-11-29T15:37:39.581Z,89.90
2018-11-29T15:40:11.630Z,90.40
2018-11-29T15:42:40.352Z,90.80
2018-11-29T15:45:12.100Z,90.30
2018-11-29T15:47:41.124Z,90.30
2018-11-29T15:50:11.975Z,90.60
2018-11-29T15:52:40.983Z,90.50
2018-11-29T15:55:12.137Z,90.20
2018-11-29T15:57:41.090Z,90.20
2018-11-29T16:00:16.935Z,86.90
2018-11-29T16:02:46.472Z,87.90
2018-11-29T16:05:15.167Z,89.60
2018-11-29T16:07:43.940Z,90.20
2018-11-29T16:10:15.459Z,89.90
2018-11-29T16:12:44.334Z,90.00
2018-11-29T16:15:15.007Z,87.60
2018-11-29T16:17:44.036Z,89.30
2018-11-29T16:20:17.171Z,88.30
2018-11-29T16:22:45.637Z,89.30
2018-11-29T16:25:14.306Z,86.00
2018-11-29T16:27:43.005Z,88.20
2018-11-29T16:30:46.514Z,87.10
2018-11-29T16:33:17.169Z,88.20
2018-11-29T16:35:45.796Z,88.30
2018-11-29T16:38:14.602Z,86.40
2018-11-29T16:40:43.243Z,88.20
2018-11-29T16:43:11.946Z,88.10
2018-11-29T16:45:40.632Z,86.80
2018-11-29T16:48:09.319Z,89.20
2018-11-29T16:50:38.346Z,88.00
2018-11-29T16:53:07.491Z,88.80
2018-11-29T16:55:36.593Z,87.70
2018-11-29T16:58:08.163Z,89.10
2018-11-29T17:00:36.868Z,86.20
2018-11-29T17:03:05.882Z,88.10
2018-11-29T17:05:34.757Z,88.80
2018-11-29T17:08:03.606Z,87.70
2018-11-29T17:10:32.278Z,86.20
2018-11-29T17:13:02.636Z,88.20
2018-11-29T17:15:31.308Z,89.20
2018-11-29T17:17:59.995Z,85.40
2018-11-29T17:20:28.717Z,85.60
2018-11-29T17:22:57.363Z,87.60
2018-11-29T17:25:26.048Z,87.80
2018-11-29T17:27:54.730Z,88.00
2018-11-29T17:30:24.220Z,88.10
2018-11-29T17:32:55.824Z,86.80
2018-11-29T17:35:24.498Z,87.60
2018-11-29T17:37:54.486Z,82.30
2018-11-29T17:40:23.149Z,83.20
2018-11-29T17:42:53.144Z,83.10
2018-11-29T17:45:23.584Z,83.30
2018-11-29T17:47:53.658Z,82.50
2018-11-29T17:50:25.552Z,82.40
2018-11-29T17:52:54.254Z,82.50
2018-11-29T17:55:23.018Z,83.20
2018-11-29T17:57:51.814Z,83.20
2018-11-29T18:00:21.855Z,83.20
2018-11-29T18:02:50.508Z,79.60
2018-11-29T18:05:19.206Z,82.10
2018-11-29T18:07:47.907Z,77.10
2018-11-29T18:10:17.760Z,79.70
2018-11-29T18:12:48.252Z,77.60
2018-11-29T18:15:19.181Z,79.50
2018-11-29T18:17:47.835Z,81.50
2018-11-29T18:20:16.514Z,78.30
2018-11-29T18:22:45.213Z,78.30
2018-11-29T18:25:14.879Z,78.30
2018-11-29T18:27:45.003Z,77.70
2018-11-29T18:30:15.903Z,80.00
2018-11-29T18:32:44.803Z,76.60
2018-11-29T18:35:14.186Z,76.00
2018-11-29T18:37:43.081Z,76.10
2018-11-29T18:40:16.685Z,77.50
2018-11-29T18:42:46.663Z,77.10
2018-11-29T18:45:16.423Z,75.80
2018-11-29T18:47:48.240Z,76.60
2018-11-29T18:50:18.461Z,75.80
2018-11-29T18:52:47.265Z,77.90
2018-11-29T18:55:16.271Z,79.00
2018-11-29T18:57:44.977Z,77.70
2018-11-29T19:00:17.950Z,76.90
2018-11-29T19:02:46.703Z,76.20
2018-11-29T19:05:15.395Z,75.40
2018-11-29T19:07:44.143Z,75.70
2018-11-29T19:10:13.846Z,74.60
2018-11-29T19:12:45.732Z,76.90
2018-11-29T19:15:14.538Z,76.50
2018-11-29T19:17:43.203Z,76.10
2018-11-29T19:20:13.440Z,74.10
2018-11-29T19:22:41.874Z,75.30
2018-11-29T19:25:18.510Z,74.60
2018-11-29T19:27:47.214Z,73.90
2018-11-29T19:30:19.108Z,76.10
2018-11-29T19:32:50.513Z,77.50
2018-11-29T19:35:19.607Z,76.60
2018-11-29T19:37:48.314Z,79.30
2018-11-29T19:40:17.413Z,78.50
2018-11-29T19:42:46.062Z,78.10
2018-11-29T19:45:15.632Z,79.10
2018-11-29T19:47:44.338Z,77.80
2018-11-29T19:50:14.182Z,78.10
2018-11-29T19:52:43.900Z,78.20
2018-11-29T19:55:15.444Z,79.20
2018-11-29T19:57:44.092Z,79.50
2018-11-29T20:00:13.464Z,81.20
2018-11-29T20:02:43.418Z,77.40
2018-11-29T20:05:12.548Z,78.20
2018-11-29T20:07:41.402Z,78.00
2018-11-29T20:10:11.323Z,78.40
2018-11-29T20:12:40.027Z,78.40
2018-11-29T20:15:11.727Z,79.30
2018-11-29T20:17:40.833Z,81.10
2018-11-29T20:20:10.697Z,80.10
2018-11-29T20:22:39.686Z,81.40
2018-11-29T20:25:10.079Z,80.20
2018-11-29T20:27:38.916Z,79.10
2018-11-29T20:30:10.495Z,80.40
2018-11-29T20:32:39.224Z,79.60
2018-11-29T20:35:08.537Z,82.80
2018-11-29T20:37:37.229Z,79.00
2018-11-29T20:40:16.667Z,80.40
2018-11-29T20:42:46.503Z,79.70
2018-11-29T20:45:16.533Z,81.10
2018-11-29T20:47:45.449Z,81.70
2018-11-29T20:50:15.589Z,81.00
2018-11-29T20:52:44.698Z,82.20
2018-11-29T20:55:15.963Z,79.20
2018-11-29T20:57:44.901Z,82.10
2018-11-29T21:00:15.175Z,81.20
2018-11-29T21:02:44.052Z,81.60
2018-11-29T21:05:15.187Z,82.70
2018-11-29T21:07:45.200Z,80.80
2018-11-29T21:10:16.243Z,82.60
2018-11-29T21:12:44.893Z,81.90
2018-11-29T21:15:13.539Z,82.30
2018-11-29T21:17:42.207Z,82.60
2018-11-29T21:20:12.141Z,83.20
2018-11-29T21:22:41.539Z,81.80
2018-11-29T21:25:12.445Z,81.90
2018-11-29T21:27:41.237Z,83.70
2018-11-29T21:30:14.846Z,82.30
2018-11-29T21:32:43.661Z,83.90
2018-11-29T21:35:14.484Z,84.40
2018-11-29T21:37:44.273Z,85.00
2018-11-29T21:40:14.917Z,85.70
2018-11-29T21:42:43.635Z,85.00
2018-11-29T21:45:12.288Z,85.00
2018-11-29T21:47:41.109Z,85.40
2018-11-29T21:50:09.773Z,87.10
2018-11-29T21:52:38.489Z,85.20
2018-11-29T21:55:08.025Z,83.90
2018-11-29T21:57:37.134Z,87.10
2018-11-29T22:00:22.408Z,85.80
2018-11-29T22:02:55.907Z,87.20
2018-11-29T22:05:25.006Z,87.20
2018-11-29T22:07:54.202Z,87.20
2018-11-29T22:10:23.307Z,86.30
2018-11-29T22:12:52.389Z,85.60
2018-11-29T22:15:21.382Z,87.40
2018-11-29T22:18:31.030Z,88.50
2018-11-29T22:21:02.507Z,89.00
2018-11-29T22:23:32.689Z,87.20
2018-11-29T22:26:03.399Z,88.20
2018-11-29T22:28:32.738Z,87.20
2018-11-29T22:31:01.726Z,87.20
2018-11-29T22:33:30.826Z,88.20
2018-11-29T22:35:59.919Z,89.60
2018-11-29T22:38:29.012Z,87.70
2018-11-29T22:40:57.699Z,89.60
2018-11-29T22:43:26.348Z,87.80
2018-11-29T22:45:55.015Z,87.20
2018-11-29T22:48:23.716Z,88.60
2018-11-29T22:50:52.361Z,87.40
2018-11-29T22:53:21.030Z,86.90
2018-11-29T22:55:49.726Z,87.90
2018-11-29T22:58:18.403Z,86.50
2018-11-29T23:00:51.372Z,87.00
2018-11-29T23:03:20.216Z,86.70
2018-11-29T23:05:48.903Z,86.10
2018-11-29T23:08:17.573Z,86.30
2018-11-29T23:10:46.243Z,86.70
2018-11-29T23:13:14.927Z,88.20
2018-11-29T23:15:43.865Z,86.20
2018-11-29T23:18:12.568Z,86.50
2018-11-29T23:20:41.391Z,87.30
2018-11-29T23:23:10.121Z,86.80
2018-11-29T23:25:38.821Z,85.80
2018-11-29T23:28:07.518Z,86.50
2018-11-29T23:30:36.209Z,86.00
2018-11-29T23:33:04.918Z,84.80
2018-11-29T23:35:33.644Z,84.20
2018-11-29T23:38:02.302Z,83.10
2018-11-29T23:40:31.019Z,84.00
2018-11-29T23:42:59.674Z,84.40
2018-11-29T23:45:28.354Z,85.80
2018-11-29T23:47:57.005Z,86.60
2018-11-29T23:50:25.667Z,86.60
2018-11-29T23:52:54.345Z,85.30
2018-11-29T23:55:23.136Z,85.10
2018-11-29T23:57:51.867Z,85.40
